Almond, North Carolina
Current Conditions -  °F | °C
As of 6:35 PM on Thursday 18 Dec 2014 (Local Time) from KRHP Reporting Station
Overcast Overcast  
Wind Chill:   Ceiling: 4400
Heat Index:   Visibility: 10mi
Dew Point:   Wind: 0mph
Humidity: 68%   Direction: NA
Pressure: 30.11"   Gusts: NA
Location:  35.37°N, 83.57°W
Report Text: KRHP 182335Z AUTO 00000KT 10SM OVC044 07/01 A3011 RMK AO2 T00700014
Loading
Personal Weather Stations






























Interactive Weather Map New forecast layout! Learn more

10-Day Weather Forecast

Advertisements
Track Severe Weather on mobile